Time;durP1;ratioP1;P1;durP2;ratioP2;P2;SDS_P1;SDS_P2;PMS_P1;PMS_P2;Temp;Humidity;BMP_temperature;BMP_pressure;BME280_temperature;BME280_humidity;BME280_pressure;Samples;Min_cycle;Max_cycle;Signal;HPM_P1;HPM_P2
2020/12/15 00:01:07;;;;;;;17.13;5.50;;;;;;;;;;4925986;29;20040;-58
2020/12/15 00:03:33;;;;;;;20.45;5.32;;;;;;;;;;4925622;29;20115;-57
2020/12/15 00:05:59;;;;;;;16.45;5.30;;;;;;;;;;4926150;29;20072;-55
2020/12/15 00:08:25;;;;;;;16.23;5.15;;;;;;;;;;4925521;29;20036;-56
2020/12/15 00:10:51;;;;;;;14.95;4.90;;;;;;;;;;4925377;29;20046;-57
2020/12/15 00:13:16;;;;;;;19.55;5.30;;;;;;;;;;4924302;29;20048;-57
2020/12/15 00:15:42;;;;;;;15.35;5.05;;;;;;;;;;4924766;29;20051;-58
2020/12/15 00:18:08;;;;;;;11.23;5.20;;;;;;;;;;4925705;29;20055;-55
2020/12/15 00:20:34;;;;;;;11.55;5.05;;;;;;;;;;4925415;29;20040;-57
2020/12/15 00:23:01;;;;;;;13.27;5.28;;;;;;;;;;4924550;29;20048;-57
2020/12/15 00:25:27;;;;;;;16.75;5.28;;;;;;;;;;4925335;29;20148;-58
2020/12/15 00:27:53;;;;;;;11.13;4.95;;;;;;;;;;4927078;29;20051;-57
2020/12/15 00:30:19;;;;;;;11.25;4.97;;;;;;;;;;4926481;29;20150;-56
2020/12/15 00:32:48;;;;;;;11.68;4.95;;;;;;;;;;4927964;29;20111;-57
2020/12/15 00:35:14;;;;;;;10.57;5.13;;;;;;;;;;4928754;29;20051;-56
2020/12/15 00:37:40;;;;;;;17.13;5.32;;;;;;;;;;4926415;29;20099;-57
2020/12/15 00:40:06;;;;;;;14.70;5.20;;;;;;;;;;4930147;29;20043;-57
2020/12/15 00:42:32;;;;;;;13.00;4.40;;;;;;;;;;4924881;29;20524;-56
2020/12/15 00:44:58;;;;;;;10.13;4.07;;;;;;;;;;4926713;29;20043;-57
2020/12/15 00:47:24;;;;;;;10.02;4.47;;;;;;;;;;4925286;29;20092;-57
2020/12/15 00:49:50;;;;;;;10.00;4.03;;;;;;;;;;4926584;29;20098;-55
2020/12/15 00:52:16;;;;;;;10.65;3.97;;;;;;;;;;4926636;29;20112;-57
2020/12/15 00:54:42;;;;;;;8.63;3.40;;;;;;;;;;4912620;29;20040;-56
2020/12/15 00:57:08;;;;;;;6.80;3.03;;;;;;;;;;4927493;29;20044;-57
2020/12/15 00:59:33;;;;;;;7.15;3.60;;;;;;;;;;4910774;29;20040;-57
2020/12/15 01:02:03;;;;;;;12.00;3.70;;;;;;;;;;4927478;29;20044;-55
2020/12/15 01:04:29;;;;;;;7.80;3.25;;;;;;;;;;4927450;29;20071;-55
2020/12/15 01:06:56;;;;;;;6.63;2.85;;;;;;;;;;4932050;29;20180;-57
2020/12/15 01:09:22;;;;;;;6.47;2.92;;;;;;;;;;4929423;29;20059;-55
2020/12/15 01:11:48;;;;;;;9.50;3.40;;;;;;;;;;4929004;29;20056;-57
2020/12/15 01:14:13;;;;;;;9.23;3.60;;;;;;;;;;4927133;29;20085;-57
2020/12/15 01:16:40;;;;;;;6.70;3.15;;;;;;;;;;4928966;29;20047;-56
2020/12/15 01:19:06;;;;;;;7.70;3.42;;;;;;;;;;4930422;29;20052;-57
2020/12/15 01:21:31;;;;;;;6.32;2.90;;;;;;;;;;4929467;29;20105;-56
2020/12/15 01:24:00;;;;;;;8.63;2.65;;;;;;;;;;4929365;29;20138;-55
2020/12/15 01:26:26;;;;;;;7.70;3.33;;;;;;;;;;4926734;29;20442;-56
2020/12/15 01:28:52;;;;;;;7.70;2.92;;;;;;;;;;4928979;29;20048;-57
2020/12/15 01:31:24;;;;;;;9.00;3.33;;;;;;;;;;4929796;29;20071;-58
2020/12/15 01:33:50;;;;;;;10.07;3.20;;;;;;;;;;4932169;29;20086;-56
2020/12/15 01:36:16;;;;;;;9.40;3.08;;;;;;;;;;4927831;29;22310;-57
2020/12/15 01:38:42;;;;;;;13.90;5.80;;;;;;;;;;4929320;29;20055;-56
2020/12/15 01:41:08;;;;;;;8.15;3.83;;;;;;;;;;4928002;29;20036;-57
2020/12/15 01:43:34;;;;;;;13.02;3.10;;;;;;;;;;4926417;29;20446;-53
2020/12/15 01:46:00;;;;;;;6.53;2.67;;;;;;;;;;4928459;29;20060;-56
2020/12/15 01:48:26;;;;;;;6.20;2.17;;;;;;;;;;4911203;29;20047;-56
2020/12/15 01:50:52;;;;;;;4.80;1.60;;;;;;;;;;4926275;29;20064;-56
2020/12/15 01:53:18;;;;;;;4.53;1.05;;;;;;;;;;4926487;29;20051;-56
2020/12/15 01:55:44;;;;;;;5.65;1.50;;;;;;;;;;4925601;29;20115;-57
2020/12/15 01:58:10;;;;;;;6.05;1.20;;;;;;;;;;4928758;29;20051;-55
2020/12/15 02:00:36;;;;;;;4.00;1.38;;;;;;;;;;4922813;29;20048;-57
2020/12/15 02:03:02;;;;;;;3.40;0.95;;;;;;;;;;4926720;29;20047;-56
2020/12/15 02:05:29;;;;;;;2.97;0.90;;;;;;;;;;4926212;29;20099;-57
2020/12/15 02:07:55;;;;;;;3.38;0.80;;;;;;;;;;4927445;29;20046;-57
2020/12/15 02:10:20;;;;;;;1.98;0.70;;;;;;;;;;4929207;29;20048;-57
2020/12/15 02:12:48;;;;;;;2.60;0.80;;;;;;;;;;4928345;29;20059;-56
2020/12/15 02:15:14;;;;;;;2.78;0.90;;;;;;;;;;4926632;29;20036;-57
2020/12/15 02:17:40;;;;;;;2.55;0.85;;;;;;;;;;4927122;29;20055;-57
2020/12/15 02:20:10;;;;;;;2.92;0.98;;;;;;;;;;4927980;29;20067;-57
2020/12/15 02:22:36;;;;;;;4.10;0.90;;;;;;;;;;4923914;29;20130;-55
2020/12/15 02:25:11;;;;;;;3.40;1.25;;;;;;;;;;4914979;29;20080;-57
2020/12/15 02:27:37;;;;;;;3.97;1.50;;;;;;;;;;4927426;29;20499;-58
2020/12/15 02:30:07;;;;;;;3.47;1.23;;;;;;;;;;4926811;29;20067;-57
2020/12/15 02:32:33;;;;;;;2.90;0.98;;;;;;;;;;4925680;29;20055;-57
2020/12/15 02:34:59;;;;;;;4.53;1.45;;;;;;;;;;4927528;29;20044;-56
2020/12/15 02:37:25;;;;;;;6.80;2.30;;;;;;;;;;4924755;29;20054;-57
2020/12/15 02:39:51;;;;;;;4.22;1.48;;;;;;;;;;4925843;29;20108;-58
2020/12/15 02:42:17;;;;;;;5.93;1.65;;;;;;;;;;4926589;29;20039;-57
2020/12/15 02:44:43;;;;;;;6.25;1.60;;;;;;;;;;4925711;29;20164;-54
2020/12/15 02:47:08;;;;;;;4.90;1.90;;;;;;;;;;4927544;29;20064;-55
2020/12/15 02:49:34;;;;;;;4.90;1.48;;;;;;;;;;4926022;29;20048;-56
2020/12/15 02:52:00;;;;;;;4.78;1.60;;;;;;;;;;4914785;29;20059;-56
2020/12/15 02:54:26;;;;;;;3.53;1.20;;;;;;;;;;4925195;29;20043;-55
2020/12/15 02:56:53;;;;;;;5.00;1.30;;;;;;;;;;4925518;29;20042;-56
2020/12/15 02:59:19;;;;;;;4.07;1.38;;;;;;;;;;4926425;29;20050;-57
2020/12/15 03:01:46;;;;;;;4.25;1.30;;;;;;;;;;4925688;29;20051;-55
2020/12/15 03:04:12;;;;;;;3.72;1.40;;;;;;;;;;4928455;29;20116;-56
2020/12/15 03:06:38;;;;;;;4.35;1.45;;;;;;;;;;4926509;29;20043;-56
2020/12/15 03:09:09;;;;;;;3.92;0.85;;;;;;;;;;4926407;29;20036;-54
2020/12/15 03:11:35;;;;;;;3.40;0.88;;;;;;;;;;4924918;29;20036;-57
2020/12/15 03:14:02;;;;;;;2.53;0.77;;;;;;;;;;4924303;29;20067;-54
2020/12/15 03:16:28;;;;;;;6.60;2.03;;;;;;;;;;4928302;29;20047;-57
2020/12/15 03:18:54;;;;;;;4.60;1.50;;;;;;;;;;4928602;29;20040;-57
2020/12/15 03:21:21;;;;;;;5.05;1.48;;;;;;;;;;4927624;29;20059;-54
2020/12/15 03:23:47;;;;;;;4.30;1.40;;;;;;;;;;4926307;29;20047;-55
2020/12/15 03:26:13;;;;;;;3.60;1.17;;;;;;;;;;4927005;29;20102;-56
2020/12/15 03:28:38;;;;;;;4.78;1.10;;;;;;;;;;4927450;29;20052;-57
2020/12/15 03:31:04;;;;;;;3.35;1.10;;;;;;;;;;4928023;29;20596;-57
2020/12/15 03:33:30;;;;;;;7.25;1.38;;;;;;;;;;4928683;29;20570;-58
2020/12/15 03:35:56;;;;;;;2.90;1.00;;;;;;;;;;4928801;29;20048;-57
2020/12/15 03:38:22;;;;;;;2.40;0.80;;;;;;;;;;4928610;29;20106;-58
2020/12/15 03:40:48;;;;;;;3.10;0.90;;;;;;;;;;4915943;29;20067;-56
2020/12/15 03:43:14;;;;;;;2.38;0.93;;;;;;;;;;4924404;29;20131;-58
2020/12/15 03:45:46;;;;;;;3.63;1.00;;;;;;;;;;4925234;29;20042;-58
2020/12/15 03:48:12;;;;;;;3.47;0.80;;;;;;;;;;4925975;29;20138;-57
2020/12/15 03:50:38;;;;;;;6.30;1.02;;;;;;;;;;4924373;29;20857;-56
2020/12/15 03:53:04;;;;;;;3.67;0.80;;;;;;;;;;4924891;29;20051;-58
2020/12/15 03:55:30;;;;;;;2.92;0.85;;;;;;;;;;4925245;29;20040;-55
2020/12/15 03:57:56;;;;;;;4.93;1.20;;;;;;;;;;4927631;29;20052;-57
2020/12/15 04:00:22;;;;;;;2.97;0.90;;;;;;;;;;4926559;29;20043;-56
2020/12/15 04:02:48;;;;;;;3.92;1.00;;;;;;;;;;4925065;29;20075;-55
2020/12/15 04:05:14;;;;;;;3.05;0.80;;;;;;;;;;4927518;29;20119;-57
2020/12/15 04:07:40;;;;;;;2.22;0.68;;;;;;;;;;4929884;29;20043;-58
2020/12/15 04:10:06;;;;;;;2.58;0.70;;;;;;;;;;4913120;29;20059;-57
2020/12/15 04:12:32;;;;;;;2.38;0.70;;;;;;;;;;4926365;29;20062;-54
2020/12/15 04:14:58;;;;;;;3.30;0.80;;;;;;;;;;4915229;29;20116;-55
2020/12/15 04:17:24;;;;;;;2.70;0.73;;;;;;;;;;4926030;29;20047;-55
2020/12/15 04:19:50;;;;;;;2.40;0.70;;;;;;;;;;4927731;29;20046;-56
2020/12/15 04:22:16;;;;;;;3.05;0.60;;;;;;;;;;4924024;29;20771;-55
2020/12/15 04:24:42;;;;;;;2.28;0.60;;;;;;;;;;4926357;29;20109;-57
2020/12/15 04:27:08;;;;;;;2.45;0.70;;;;;;;;;;4918142;29;20048;-57
2020/12/15 04:29:33;;;;;;;2.30;0.57;;;;;;;;;;4925120;29;20035;-56
2020/12/15 04:31:59;;;;;;;2.30;0.63;;;;;;;;;;4925397;29;20044;-57
2020/12/15 04:34:25;;;;;;;2.60;0.70;;;;;;;;;;4928117;29;20047;-56
2020/12/15 04:36:51;;;;;;;3.15;0.70;;;;;;;;;;4927728;29;20043;-56
2020/12/15 04:39:17;;;;;;;2.28;0.73;;;;;;;;;;4931111;29;20044;-57
2020/12/15 04:41:43;;;;;;;2.28;0.73;;;;;;;;;;4929256;29;20771;-55
2020/12/15 04:44:09;;;;;;;4.45;0.88;;;;;;;;;;4929318;29;20040;-57
2020/12/15 04:46:36;;;;;;;2.38;0.70;;;;;;;;;;4929007;29;20048;-57
2020/12/15 04:49:06;;;;;;;2.33;0.70;;;;;;;;;;4932129;29;20060;-57
2020/12/15 04:51:43;;;;;;;2.60;0.60;;;;;;;;;;4913332;29;20059;-57
2020/12/15 04:54:15;;;;;;;1.65;0.70;;;;;;;;;;4930059;29;20655;-57
2020/12/15 04:56:42;;;;;;;2.28;0.60;;;;;;;;;;4929436;29;20050;-57
2020/12/15 04:59:11;;;;;;;1.88;0.70;;;;;;;;;;4931258;29;20036;-57
2020/12/15 05:01:38;;;;;;;2.60;0.73;;;;;;;;;;4928415;29;20036;-57
2020/12/15 05:04:04;;;;;;;2.75;0.80;;;;;;;;;;4931158;29;20589;-56
2020/12/15 05:06:32;;;;;;;3.22;0.68;;;;;;;;;;4926936;29;20391;-58
2020/12/15 05:08:58;;;;;;;3.60;0.70;;;;;;;;;;4929350;29;20064;-57
2020/12/15 05:11:24;;;;;;;3.05;0.70;;;;;;;;;;4929244;29;20043;-57
2020/12/15 05:13:50;;;;;;;1.55;0.60;;;;;;;;;;4928354;29;21895;-58
2020/12/15 05:16:16;;;;;;;2.30;0.60;;;;;;;;;;4927854;29;20051;-57
2020/12/15 05:18:42;;;;;;;2.17;0.73;;;;;;;;;;4929646;29;20040;-57
2020/12/15 05:21:11;;;;;;;2.17;0.60;;;;;;;;;;4928663;29;20577;-57
2020/12/15 05:23:43;;;;;;;2.55;0.50;;;;;;;;;;4928038;29;20044;-57
2020/12/15 05:26:09;;;;;;;2.38;0.70;;;;;;;;;;4928862;29;20039;-57
2020/12/15 05:28:35;;;;;;;1.73;0.60;;;;;;;;;;4928671;29;20041;-57
2020/12/15 05:31:01;;;;;;;2.05;0.60;;;;;;;;;;4930033;29;20036;-57
2020/12/15 05:33:27;;;;;;;1.58;0.50;;;;;;;;;;4927666;29;20048;-57
2020/12/15 05:35:53;;;;;;;2.13;0.50;;;;;;;;;;4929831;29;20730;-57
2020/12/15 05:38:18;;;;;;;2.22;0.60;;;;;;;;;;4929584;29;20063;-57
2020/12/15 05:40:44;;;;;;;2.20;0.50;;;;;;;;;;4931568;29;20393;-56
2020/12/15 05:43:12;;;;;;;2.20;0.60;;;;;;;;;;4930491;29;20079;-56
2020/12/15 05:45:38;;;;;;;2.70;0.80;;;;;;;;;;4930165;29;20721;-57
2020/12/15 05:48:05;;;;;;;1.40;0.45;;;;;;;;;;4928331;29;20125;-57
2020/12/15 05:50:31;;;;;;;2.33;0.47;;;;;;;;;;4929820;29;20112;-57
2020/12/15 05:52:57;;;;;;;1.95;0.50;;;;;;;;;;4929005;29;20071;-57
2020/12/15 05:55:23;;;;;;;2.88;0.50;;;;;;;;;;4928119;29;20044;-57
2020/12/15 05:57:50;;;;;;;1.35;0.47;;;;;;;;;;4929591;29;20158;-57
2020/12/15 06:00:16;;;;;;;2.95;0.70;;;;;;;;;;4931257;29;20036;-57
2020/12/15 06:02:42;;;;;;;1.75;0.50;;;;;;;;;;4927410;29;20054;-57
2020/12/15 06:05:08;;;;;;;3.63;0.60;;;;;;;;;;4930494;29;20047;-57
2020/12/15 06:07:34;;;;;;;1.65;0.50;;;;;;;;;;4925755;29;20032;-58
2020/12/15 06:10:01;;;;;;;1.73;0.57;;;;;;;;;;4914447;29;20107;-57
2020/12/15 06:12:27;;;;;;;1.83;0.50;;;;;;;;;;4928797;29;20058;-57
2020/12/15 06:14:53;;;;;;;2.03;0.50;;;;;;;;;;4930078;29;20040;-57
2020/12/15 06:17:20;;;;;;;2.38;0.88;;;;;;;;;;4927431;29;20044;-55
2020/12/15 06:19:53;;;;;;;2.80;0.60;;;;;;;;;;4927073;29;20062;-58
2020/12/15 06:22:21;;;;;;;1.70;0.50;;;;;;;;;;4927739;29;20047;-58
2020/12/15 06:24:54;;;;;;;1.50;0.47;;;;;;;;;;4929739;29;20040;-58
2020/12/15 06:27:27;;;;;;;1.85;0.60;;;;;;;;;;4926353;29;20043;-57
2020/12/15 06:29:53;;;;;;;1.60;0.47;;;;;;;;;;4928301;29;20036;-57
2020/12/15 06:32:19;;;;;;;1.77;0.50;;;;;;;;;;4926684;29;22240;-58
2020/12/15 06:34:46;;;;;;;2.65;0.68;;;;;;;;;;4927751;29;20039;-58
2020/12/15 06:37:14;;;;;;;1.10;0.47;;;;;;;;;;4926457;29;20036;-57
2020/12/15 06:39:51;;;;;;;2.17;0.60;;;;;;;;;;4925977;29;20125;-58
2020/12/15 06:42:18;;;;;;;2.15;0.73;;;;;;;;;;4928520;29;20044;-57
2020/12/15 06:44:44;;;;;;;1.25;0.45;;;;;;;;;;4928303;29;20107;-55
2020/12/15 06:47:09;;;;;;;1.42;0.50;;;;;;;;;;4927664;29;20055;-57
2020/12/15 06:49:37;;;;;;;1.63;0.60;;;;;;;;;;4927012;29;20043;-57
2020/12/15 06:52:06;;;;;;;1.08;0.50;;;;;;;;;;4926356;29;20090;-58
2020/12/15 06:54:34;;;;;;;1.52;0.50;;;;;;;;;;4929075;29;20051;-58
2020/12/15 06:57:07;;;;;;;1.20;0.50;;;;;;;;;;4927149;29;20067;-57
2020/12/15 06:59:37;;;;;;;1.63;0.50;;;;;;;;;;4926718;29;20079;-56
2020/12/15 07:02:13;;;;;;;1.65;0.50;;;;;;;;;;4925569;29;20049;-58
2020/12/15 07:04:46;;;;;;;1.70;0.50;;;;;;;;;;4925040;29;20206;-58
2020/12/15 07:07:13;;;;;;;1.38;0.50;;;;;;;;;;4925911;29;20619;-58
2020/12/15 07:09:39;;;;;;;1.13;0.50;;;;;;;;;;4927154;29;20055;-58
2020/12/15 07:12:12;;;;;;;2.00;0.68;;;;;;;;;;4926678;29;20042;-57
2020/12/15 07:14:38;;;;;;;1.63;0.40;;;;;;;;;;4925474;29;20044;-58
2020/12/15 07:17:04;;;;;;;1.55;0.50;;;;;;;;;;4925487;29;20185;-57
2020/12/15 07:19:29;;;;;;;1.92;0.50;;;;;;;;;;4925865;29;20098;-57
2020/12/15 07:21:55;;;;;;;1.95;0.60;;;;;;;;;;4927040;29;20067;-58
2020/12/15 07:24:21;;;;;;;1.63;0.50;;;;;;;;;;4924965;29;20048;-58
2020/12/15 07:26:47;;;;;;;1.23;0.40;;;;;;;;;;4927735;29;20048;-56
2020/12/15 07:29:17;;;;;;;1.95;0.47;;;;;;;;;;4926470;29;20071;-57
2020/12/15 07:31:43;;;;;;;1.05;0.43;;;;;;;;;;4925360;29;20044;-58
2020/12/15 07:34:10;;;;;;;1.17;0.50;;;;;;;;;;4926059;29;20063;-58
2020/12/15 07:36:36;;;;;;;1.77;0.55;;;;;;;;;;4925021;29;20038;-58
2020/12/15 07:39:04;;;;;;;1.67;0.50;;;;;;;;;;4923129;29;20067;-58
2020/12/15 07:41:30;;;;;;;1.27;0.40;;;;;;;;;;4924009;29;20040;-58
2020/12/15 07:43:56;;;;;;;2.15;0.50;;;;;;;;;;4925398;29;20040;-58
2020/12/15 07:46:26;;;;;;;1.10;0.50;;;;;;;;;;4924726;29;20036;-57
2020/12/15 07:48:55;;;;;;;1.13;0.40;;;;;;;;;;4925258;29;20070;-56
2020/12/15 07:51:20;;;;;;;1.90;0.50;;;;;;;;;;4925535;29;20536;-57
2020/12/15 07:53:53;;;;;;;0.75;0.40;;;;;;;;;;4926273;29;20058;-58
2020/12/15 07:56:19;;;;;;;5.47;0.50;;;;;;;;;;4928707;29;20071;-58
2020/12/15 07:58:48;;;;;;;1.55;0.47;;;;;;;;;;4926590;29;20059;-58
2020/12/15 08:01:19;;;;;;;1.17;0.40;;;;;;;;;;4928326;29;20044;-58
2020/12/15 08:03:44;;;;;;;1.38;0.40;;;;;;;;;;4927300;29;20032;-58
2020/12/15 08:06:10;;;;;;;1.40;0.50;;;;;;;;;;4927250;29;20631;-58
2020/12/15 08:08:36;;;;;;;1.08;0.40;;;;;;;;;;4926157;29;20126;-54
2020/12/15 08:11:02;;;;;;;0.88;0.40;;;;;;;;;;4929562;29;20064;-58
2020/12/15 08:13:28;;;;;;;1.10;0.40;;;;;;;;;;4930552;29;20048;-58
2020/12/15 08:15:54;;;;;;;1.20;0.40;;;;;;;;;;4936385;29;20047;-58
2020/12/15 08:18:21;;;;;;;1.10;0.50;;;;;;;;;;4932839;29;20040;-56
2020/12/15 08:20:47;;;;;;;1.50;0.43;;;;;;;;;;4915833;29;20048;-58
2020/12/15 08:23:14;;;;;;;0.57;0.35;;;;;;;;;;4930857;29;20051;-57
2020/12/15 08:25:44;;;;;;;1.98;0.45;;;;;;;;;;4930981;29;20146;-59
2020/12/15 08:28:13;;;;;;;1.02;0.43;;;;;;;;;;4932432;29;20444;-58
2020/12/15 08:30:40;;;;;;;1.08;0.40;;;;;;;;;;4932554;29;20044;-58
2020/12/15 08:33:06;;;;;;;1.15;0.40;;;;;;;;;;4933523;29;20051;-59
2020/12/15 08:35:32;;;;;;;1.17;0.50;;;;;;;;;;4929013;29;20098;-58
2020/12/15 08:37:59;;;;;;;2.35;0.52;;;;;;;;;;4929640;29;20864;-59
2020/12/15 08:40:26;;;;;;;2.33;0.40;;;;;;;;;;4929899;29;20087;-56
2020/12/15 08:42:58;;;;;;;1.17;0.40;;;;;;;;;;4931741;29;20067;-57
2020/12/15 08:45:27;;;;;;;0.88;0.40;;;;;;;;;;4930458;29;20052;-58
2020/12/15 08:47:54;;;;;;;1.75;0.45;;;;;;;;;;4929815;29;20043;-55
2020/12/15 08:50:20;;;;;;;1.30;0.40;;;;;;;;;;4927741;29;21042;-59
2020/12/15 08:52:46;;;;;;;1.25;0.50;;;;;;;;;;4929740;29;20063;-58
2020/12/15 08:55:12;;;;;;;2.97;0.80;;;;;;;;;;4930823;29;20043;-58
2020/12/15 08:57:38;;;;;;;1.90;0.60;;;;;;;;;;4930466;29;20041;-58
2020/12/15 09:00:14;;;;;;;3.75;0.80;;;;;;;;;;4932407;29;20039;-55
2020/12/15 09:02:40;;;;;;;3.45;0.80;;;;;;;;;;4930711;29;20039;-57
2020/12/15 09:05:10;;;;;;;2.92;0.90;;;;;;;;;;4930746;29;20089;-58
2020/12/15 09:07:37;;;;;;;2.38;0.70;;;;;;;;;;4929322;29;20047;-58
2020/12/15 09:10:11;;;;;;;1.98;0.60;;;;;;;;;;4929185;29;20135;-58
2020/12/15 09:12:37;;;;;;;1.27;0.50;;;;;;;;;;4928065;29;20052;-57
2020/12/15 09:15:04;;;;;;;1.27;0.40;;;;;;;;;;4930104;29;20047;-57
2020/12/15 09:17:30;;;;;;;1.75;0.50;;;;;;;;;;4930396;29;20043;-57
2020/12/15 09:19:56;;;;;;;2.08;0.50;;;;;;;;;;4932525;29;20047;-57
2020/12/15 09:22:23;;;;;;;1.60;0.50;;;;;;;;;;4931488;29;20122;-57
2020/12/15 09:24:48;;;;;;;1.35;0.47;;;;;;;;;;4932166;29;20039;-57
2020/12/15 09:27:22;;;;;;;1.40;0.43;;;;;;;;;;4934085;29;20047;-58
2020/12/15 09:29:48;;;;;;;0.45;0.32;;;;;;;;;;4932056;29;20044;-55
2020/12/15 09:32:14;;;;;;;0.70;0.40;;;;;;;;;;4929592;29;20520;-57
2020/12/15 09:34:40;;;;;;;0.60;0.38;;;;;;;;;;4930687;29;20643;-58
2020/12/15 09:37:06;;;;;;;0.70;0.40;;;;;;;;;;4912281;29;20048;-56
2020/12/15 09:39:32;;;;;;;0.73;0.40;;;;;;;;;;4931692;29;20078;-57
2020/12/15 09:42:02;;;;;;;0.75;0.40;;;;;;;;;;4929436;29;20067;-57
2020/12/15 09:44:28;;;;;;;0.70;0.40;;;;;;;;;;4931299;29;20592;-58
2020/12/15 09:46:54;;;;;;;0.95;0.40;;;;;;;;;;4912426;29;20048;-57
2020/12/15 09:49:20;;;;;;;2.38;0.40;;;;;;;;;;4913845;29;20051;-58
2020/12/15 09:51:45;;;;;;;0.57;0.40;;;;;;;;;;4929898;29;20040;-58
2020/12/15 09:54:12;;;;;;;0.98;0.40;;;;;;;;;;4930341;29;20063;-57
2020/12/15 09:56:42;;;;;;;1.52;0.50;;;;;;;;;;4930964;29;20114;-58
2020/12/15 09:59:11;;;;;;;2.70;0.60;;;;;;;;;;4932458;29;20076;-58
2020/12/15 10:01:43;;;;;;;2.33;0.70;;;;;;;;;;4930821;29;20127;-58
2020/12/15 10:04:09;;;;;;;3.88;1.10;;;;;;;;;;4918289;29;20108;-57
2020/12/15 10:06:36;;;;;;;2.90;1.10;;;;;;;;;;4930968;29;20047;-58
2020/12/15 10:09:03;;;;;;;3.55;1.05;;;;;;;;;;4930490;29;20042;-57
2020/12/15 10:11:29;;;;;;;4.60;0.98;;;;;;;;;;4928530;29;20390;-58
2020/12/15 10:13:54;;;;;;;5.75;1.33;;;;;;;;;;4927640;29;20103;-57
2020/12/15 10:16:20;;;;;;;4.95;1.20;;;;;;;;;;4928869;29;20123;-58
2020/12/15 10:18:46;;;;;;;3.90;1.13;;;;;;;;;;4929399;29;20186;-57
2020/12/15 10:21:12;;;;;;;3.00;0.90;;;;;;;;;;4927569;29;20123;-58
2020/12/15 10:23:38;;;;;;;4.57;0.93;;;;;;;;;;4925336;29;20131;-58
2020/12/15 10:26:04;;;;;;;6.43;1.20;;;;;;;;;;4929346;29;22066;-56
2020/12/15 10:28:30;;;;;;;3.33;1.17;;;;;;;;;;4927866;29;20042;-57
2020/12/15 10:30:56;;;;;;;4.00;1.05;;;;;;;;;;4927872;29;20048;-56
2020/12/15 10:33:22;;;;;;;2.75;0.90;;;;;;;;;;4925180;29;20056;-56
2020/12/15 10:35:48;;;;;;;3.28;0.93;;;;;;;;;;4927187;29;20061;-57
2020/12/15 10:38:14;;;;;;;3.33;1.08;;;;;;;;;;4927196;29;20035;-57
2020/12/15 10:40:40;;;;;;;5.47;1.27;;;;;;;;;;4925642;29;20036;-57
2020/12/15 10:43:06;;;;;;;3.40;0.90;;;;;;;;;;4925873;29;20049;-56
2020/12/15 10:45:32;;;;;;;4.38;1.25;;;;;;;;;;4906495;29;20036;-56
2020/12/15 10:47:57;;;;;;;4.78;1.10;;;;;;;;;;4927244;29;21252;-55
2020/12/15 10:50:23;;;;;;;4.57;1.30;;;;;;;;;;4925653;29;20677;-55
2020/12/15 10:52:49;;;;;;;6.10;1.02;;;;;;;;;;4925067;29;20111;-57
2020/12/15 10:55:15;;;;;;;6.28;1.38;;;;;;;;;;4928225;29;20044;-57
2020/12/15 10:57:41;;;;;;;6.63;1.10;;;;;;;;;;4926035;29;20095;-56
2020/12/15 11:00:07;;;;;;;6.20;1.20;;;;;;;;;;4926668;29;20036;-57
2020/12/15 11:02:33;;;;;;;5.18;1.25;;;;;;;;;;4927329;29;20099;-55
2020/12/15 11:04:59;;;;;;;6.55;1.83;;;;;;;;;;4928928;29;20076;-57
2020/12/15 11:07:25;;;;;;;7.38;1.70;;;;;;;;;;4925437;29;20051;-56
2020/12/15 11:09:51;;;;;;;4.22;1.20;;;;;;;;;;4928736;29;20455;-55
2020/12/15 11:12:17;;;;;;;3.28;0.93;;;;;;;;;;4927212;29;20047;-56
2020/12/15 11:14:43;;;;;;;6.80;1.27;;;;;;;;;;4926458;29;20044;-58
2020/12/15 11:17:09;;;;;;;3.85;1.20;;;;;;;;;;4927311;29;20047;-57
2020/12/15 11:19:36;;;;;;;4.40;1.50;;;;;;;;;;4926316;29;20136;-55
2020/12/15 11:22:02;;;;;;;4.80;1.92;;;;;;;;;;4928414;29;20588;-57
2020/12/15 11:24:28;;;;;;;6.55;1.92;;;;;;;;;;4925315;29;20040;-57
2020/12/15 11:26:54;;;;;;;8.13;1.90;;;;;;;;;;4925396;29;20179;-58
2020/12/15 11:29:20;;;;;;;6.40;1.70;;;;;;;;;;4924243;29;20052;-56
2020/12/15 11:31:49;;;;;;;5.78;1.63;;;;;;;;;;4925422;29;20040;-55
2020/12/15 11:34:15;;;;;;;9.45;2.15;;;;;;;;;;4924428;29;20130;-57
2020/12/15 11:36:41;;;;;;;6.55;2.05;;;;;;;;;;4924747;29;20048;-56
2020/12/15 11:39:07;;;;;;;6.53;1.80;;;;;;;;;;4925986;29;20036;-57
2020/12/15 11:41:34;;;;;;;6.82;2.22;;;;;;;;;;4922955;29;20155;-57
2020/12/15 11:44:00;;;;;;;5.38;2.05;;;;;;;;;;4926267;29;20044;-55
2020/12/15 11:46:26;;;;;;;5.68;2.13;;;;;;;;;;4927242;29;20050;-57
2020/12/15 11:48:52;;;;;;;6.88;1.95;;;;;;;;;;4926084;29;20575;-55
2020/12/15 11:51:18;;;;;;;6.15;1.70;;;;;;;;;;4924865;29;20047;-57
2020/12/15 11:53:44;;;;;;;9.32;2.30;;;;;;;;;;4923790;29;20098;-57
2020/12/15 11:56:10;;;;;;;8.57;2.35;;;;;;;;;;4924676;29;20452;-56
2020/12/15 11:58:36;;;;;;;7.55;2.00;;;;;;;;;;4926159;29;20043;-58
2020/12/15 12:01:03;;;;;;;8.73;2.30;;;;;;;;;;4924341;29;20352;-57
2020/12/15 12:03:29;;;;;;;11.35;2.40;;;;;;;;;;4925528;29;20043;-57
2020/12/15 12:05:55;;;;;;;6.28;2.03;;;;;;;;;;4928287;29;20070;-58
2020/12/15 12:08:21;;;;;;;7.80;4.22;;;;;;;;;;4924536;29;20051;-57
2020/12/15 12:10:46;;;;;;;6.07;2.30;;;;;;;;;;4923287;29;20047;-56
2020/12/15 12:13:12;;;;;;;7.05;2.13;;;;;;;;;;4924675;29;20757;-57
2020/12/15 12:15:38;;;;;;;9.40;2.05;;;;;;;;;;4923303;29;20529;-55
2020/12/15 12:18:04;;;;;;;9.52;1.92;;;;;;;;;;4923560;29;20077;-57
2020/12/15 12:20:34;;;;;;;6.18;2.08;;;;;;;;;;4923920;29;20035;-57
2020/12/15 12:23:00;;;;;;;6.25;2.10;;;;;;;;;;4923985;29;20131;-56
2020/12/15 12:25:26;;;;;;;5.68;1.80;;;;;;;;;;4923860;29;20055;-56
2020/12/15 12:27:52;;;;;;;7.32;2.10;;;;;;;;;;4925607;29;20047;-55
2020/12/15 12:30:18;;;;;;;6.32;2.13;;;;;;;;;;4918310;29;20099;-58
2020/12/15 12:32:43;;;;;;;9.02;2.75;;;;;;;;;;4922077;29;20132;-56
2020/12/15 12:35:09;;;;;;;7.32;2.33;;;;;;;;;;4926501;29;20067;-55
2020/12/15 12:37:35;;;;;;;6.65;1.77;;;;;;;;;;4924165;29;20047;-55
2020/12/15 12:40:01;;;;;;;11.18;2.10;;;;;;;;;;4924835;29;20040;-56
2020/12/15 12:42:27;;;;;;;5.55;2.17;;;;;;;;;;4922950;29;20187;-54
2020/12/15 12:44:53;;;;;;;9.63;2.30;;;;;;;;;;4908239;29;20066;-54
2020/12/15 12:47:20;;;;;;;6.93;2.05;;;;;;;;;;4926248;29;20040;-56
2020/12/15 12:49:46;;;;;;;7.10;2.08;;;;;;;;;;4925881;29;20505;-56
2020/12/15 12:52:12;;;;;;;7.43;2.58;;;;;;;;;;4925247;29;20047;-57
2020/12/15 12:54:38;;;;;;;5.90;1.95;;;;;;;;;;4925958;29;20468;-53
2020/12/15 12:57:03;;;;;;;8.13;2.30;;;;;;;;;;4924347;29;20088;-53
2020/12/15 12:59:29;;;;;;;8.10;2.20;;;;;;;;;;4927472;29;20072;-56
2020/12/15 13:01:59;;;;;;;7.65;2.42;;;;;;;;;;4927548;29;20053;-56
2020/12/15 13:04:25;;;;;;;8.43;2.60;;;;;;;;;;4925751;29;20060;-56
2020/12/15 13:06:52;;;;;;;9.20;2.40;;;;;;;;;;4928231;29;20096;-54
2020/12/15 13:09:18;;;;;;;13.60;2.70;;;;;;;;;;4922139;29;20048;-55
2020/12/15 13:11:48;;;;;;;6.65;2.47;;;;;;;;;;4930520;29;20400;-57
2020/12/15 13:14:14;;;;;;;6.70;2.40;;;;;;;;;;4929511;29;20048;-56
2020/12/15 13:16:41;;;;;;;7.07;2.40;;;;;;;;;;4929312;29;20114;-55
2020/12/15 13:19:06;;;;;;;4.75;1.75;;;;;;;;;;4930537;29;20044;-55
2020/12/15 13:21:32;;;;;;;7.68;2.47;;;;;;;;;;4929380;29;20040;-56
2020/12/15 13:23:58;;;;;;;7.53;2.17;;;;;;;;;;4932244;29;20043;-55
2020/12/15 13:26:24;;;;;;;7.43;2.50;;;;;;;;;;4926351;29;20055;-57
2020/12/15 13:28:50;;;;;;;6.97;2.03;;;;;;;;;;4928179;29;20031;-56
2020/12/15 13:31:16;;;;;;;8.55;1.88;;;;;;;;;;4927577;29;20060;-57
2020/12/15 13:33:42;;;;;;;7.80;2.53;;;;;;;;;;4927258;29;20421;-56
2020/12/15 13:36:08;;;;;;;4.85;1.80;;;;;;;;;;4926658;29;20039;-55
2020/12/15 13:38:40;;;;;;;5.97;2.15;;;;;;;;;;4926173;29;20048;-56
2020/12/15 13:41:05;;;;;;;7.25;1.92;;;;;;;;;;4927852;29;20071;-55
2020/12/15 13:43:31;;;;;;;6.25;1.30;;;;;;;;;;4926021;29;20043;-55
2020/12/15 13:45:57;;;;;;;2.80;0.70;;;;;;;;;;4926905;29;20126;-56
2020/12/15 13:48:23;;;;;;;4.35;1.00;;;;;;;;;;4925270;29;20042;-55
2020/12/15 13:50:49;;;;;;;2.85;0.80;;;;;;;;;;4928274;29;20096;-57
2020/12/15 13:53:15;;;;;;;2.67;0.73;;;;;;;;;;4926997;29;20051;-55
2020/12/15 13:55:42;;;;;;;2.45;0.70;;;;;;;;;;4926103;29;20040;-57
2020/12/15 13:58:08;;;;;;;2.65;0.73;;;;;;;;;;4925905;29;20048;-57
2020/12/15 14:00:35;;;;;;;4.07;0.85;;;;;;;;;;4925657;29;20095;-55
2020/12/15 14:03:01;;;;;;;2.92;0.82;;;;;;;;;;4925922;29;20050;-53
2020/12/15 14:05:27;;;;;;;2.70;0.70;;;;;;;;;;4925601;29;20082;-56
2020/12/15 14:07:53;;;;;;;3.20;0.85;;;;;;;;;;4927165;29;20044;-57
2020/12/15 14:10:19;;;;;;;2.63;0.80;;;;;;;;;;4926366;29;20031;-55
2020/12/15 14:12:45;;;;;;;4.18;1.00;;;;;;;;;;4925175;29;20067;-57
2020/12/15 14:15:11;;;;;;;2.70;0.90;;;;;;;;;;4927614;29;20071;-56
2020/12/15 14:17:36;;;;;;;3.50;0.82;;;;;;;;;;4924850;29;20043;-54
2020/12/15 14:20:02;;;;;;;4.03;0.77;;;;;;;;;;4910416;29;20046;-56
2020/12/15 14:22:28;;;;;;;3.05;0.60;;;;;;;;;;4926581;29;20050;-54
2020/12/15 14:24:54;;;;;;;1.95;0.57;;;;;;;;;;4926984;29;20063;-57
2020/12/15 14:27:20;;;;;;;2.15;0.50;;;;;;;;;;4924613;29;20036;-56
2020/12/15 14:29:46;;;;;;;3.00;0.60;;;;;;;;;;4926719;29;20063;-58
2020/12/15 14:32:11;;;;;;;1.85;0.60;;;;;;;;;;4927719;29;20520;-57
2020/12/15 14:34:37;;;;;;;4.05;0.60;;;;;;;;;;4925969;29;20887;-57
2020/12/15 14:37:03;;;;;;;3.38;0.68;;;;;;;;;;4928590;29;20680;-55
2020/12/15 14:39:29;;;;;;;4.07;0.73;;;;;;;;;;4907611;29;20067;-58